sensor_id;sensor_type;location;lat;lon;timestamp;temperature;humidity
5554;DHT22;2800;49.528;8.666;2023-04-06T00:01:12;2.70;69.40
5554;DHT22;2800;49.528;8.666;2023-04-06T00:03:38;2.70;68.50
5554;DHT22;2800;49.528;8.666;2023-04-06T00:06:04;2.80;70.90
5554;DHT22;2800;49.528;8.666;2023-04-06T00:08:29;2.80;71.50
5554;DHT22;2800;49.528;8.666;2023-04-06T00:10:55;2.80;72.50
5554;DHT22;2800;49.528;8.666;2023-04-06T00:13:21;2.90;73.50
5554;DHT22;2800;49.528;8.666;2023-04-06T00:15:46;3.00;70.70
5554;DHT22;2800;49.528;8.666;2023-04-06T00:18:12;3.10;71.10
5554;DHT22;2800;49.528;8.666;2023-04-06T00:20:37;3.10;69.40
5554;DHT22;2800;49.528;8.666;2023-04-06T00:23:03;3.10;69.90
5554;DHT22;2800;49.528;8.666;2023-04-06T00:25:28;3.20;70.40
5554;DHT22;2800;49.528;8.666;2023-04-06T00:27:54;3.20;76.10
5554;DHT22;2800;49.528;8.666;2023-04-06T00:30:20;3.20;74.80
5554;DHT22;2800;49.528;8.666;2023-04-06T00:32:46;3.20;68.60
5554;DHT22;2800;49.528;8.666;2023-04-06T00:35:11;3.20;68.30
5554;DHT22;2800;49.528;8.666;2023-04-06T00:37:37;3.20;68.70
5554;DHT22;2800;49.528;8.666;2023-04-06T00:40:03;3.30;68.10
5554;DHT22;2800;49.528;8.666;2023-04-06T00:42:28;3.30;66.30
5554;DHT22;2800;49.528;8.666;2023-04-06T00:44:56;3.50;65.60
5554;DHT22;2800;49.528;8.666;2023-04-06T00:47:23;3.60;68.60
5554;DHT22;2800;49.528;8.666;2023-04-06T00:49:50;3.50;67.20
5554;DHT22;2800;49.528;8.666;2023-04-06T00:52:18;3.40;67.00
5554;DHT22;2800;49.528;8.666;2023-04-06T00:54:43;3.40;69.50
5554;DHT22;2800;49.528;8.666;2023-04-06T00:57:11;3.50;67.10
5554;DHT22;2800;49.528;8.666;2023-04-06T00:59:37;3.40;68.70
5554;DHT22;2800;49.528;8.666;2023-04-06T01:02:02;3.40;68.50
5554;DHT22;2800;49.528;8.666;2023-04-06T01:04:28;3.30;68.80
5554;DHT22;2800;49.528;8.666;2023-04-06T01:06:53;3.30;70.10
5554;DHT22;2800;49.528;8.666;2023-04-06T01:09:19;3.30;70.10
5554;DHT22;2800;49.528;8.666;2023-04-06T01:11:45;3.20;70.90
5554;DHT22;2800;49.528;8.666;2023-04-06T01:14:11;3.20;70.00
5554;DHT22;2800;49.528;8.666;2023-04-06T01:16:36;3.20;71.70
5554;DHT22;2800;49.528;8.666;2023-04-06T01:19:10;3.20;70.50
5554;DHT22;2800;49.528;8.666;2023-04-06T01:21:40;3.10;72.90
5554;DHT22;2800;49.528;8.666;2023-04-06T01:24:06;3.10;74.20
5554;DHT22;2800;49.528;8.666;2023-04-06T01:26:33;3.10;73.20
5554;DHT22;2800;49.528;8.666;2023-04-06T01:28:59;3.10;73.10
5554;DHT22;2800;49.528;8.666;2023-04-06T01:31:25;3.10;72.60
5554;DHT22;2800;49.528;8.666;2023-04-06T01:33:52;3.10;74.20
5554;DHT22;2800;49.528;8.666;2023-04-06T01:36:17;3.10;74.60
5554;DHT22;2800;49.528;8.666;2023-04-06T01:38:43;3.00;76.70
5554;DHT22;2800;49.528;8.666;2023-04-06T01:41:09;2.90;79.90
5554;DHT22;2800;49.528;8.666;2023-04-06T01:43:35;2.80;79.80
5554;DHT22;2800;49.528;8.666;2023-04-06T01:46:00;2.70;79.70
5554;DHT22;2800;49.528;8.666;2023-04-06T01:48:26;2.90;81.80
5554;DHT22;2800;49.528;8.666;2023-04-06T01:50:53;2.70;85.30
5554;DHT22;2800;49.528;8.666;2023-04-06T01:53:18;2.70;89.30
5554;DHT22;2800;49.528;8.666;2023-04-06T01:55:44;2.70;90.40
5554;DHT22;2800;49.528;8.666;2023-04-06T01:58:09;2.80;90.80
5554;DHT22;2800;49.528;8.666;2023-04-06T02:00:35;2.80;90.50
5554;DHT22;2800;49.528;8.666;2023-04-06T02:03:01;2.70;90.80
5554;DHT22;2800;49.528;8.666;2023-04-06T02:05:29;2.70;91.00
5554;DHT22;2800;49.528;8.666;2023-04-06T02:07:55;2.60;92.80
5554;DHT22;2800;49.528;8.666;2023-04-06T02:10:22;2.50;93.30
5554;DHT22;2800;49.528;8.666;2023-04-06T02:12:48;2.50;95.30
5554;DHT22;2800;49.528;8.666;2023-04-06T02:15:14;2.40;94.40
5554;DHT22;2800;49.528;8.666;2023-04-06T02:17:40;2.50;99.30
5554;DHT22;2800;49.528;8.666;2023-04-06T02:20:06;2.40;99.30
5554;DHT22;2800;49.528;8.666;2023-04-06T02:22:32;2.50;99.40
5554;DHT22;2800;49.528;8.666;2023-04-06T02:24:57;2.50;97.90
5554;DHT22;2800;49.528;8.666;2023-04-06T02:27:23;2.50;98.70
5554;DHT22;2800;49.528;8.666;2023-04-06T02:29:49;2.60;97.70
5554;DHT22;2800;49.528;8.666;2023-04-06T02:32:14;2.50;98.40
5554;DHT22;2800;49.528;8.666;2023-04-06T02:34:40;2.50;99.90
5554;DHT22;2800;49.528;8.666;2023-04-06T02:37:05;2.50;94.90
5554;DHT22;2800;49.528;8.666;2023-04-06T02:39:31;2.50;94.40
5554;DHT22;2800;49.528;8.666;2023-04-06T02:41:56;2.50;99.90
5554;DHT22;2800;49.528;8.666;2023-04-06T02:44:22;2.50;96.70
5554;DHT22;2800;49.528;8.666;2023-04-06T02:46:48;2.40;96.10
5554;DHT22;2800;49.528;8.666;2023-04-06T02:49:13;2.40;96.90
5554;DHT22;2800;49.528;8.666;2023-04-06T02:51:39;2.40;97.70
5554;DHT22;2800;49.528;8.666;2023-04-06T02:54:05;2.50;96.80
5554;DHT22;2800;49.528;8.666;2023-04-06T02:56:30;2.40;98.40
5554;DHT22;2800;49.528;8.666;2023-04-06T02:58:56;2.40;97.50
5554;DHT22;2800;49.528;8.666;2023-04-06T03:01:21;2.20;98.20
5554;DHT22;2800;49.528;8.666;2023-04-06T03:03:47;2.10;99.90
5554;DHT22;2800;49.528;8.666;2023-04-06T03:06:13;2.10;99.90
5554;DHT22;2800;49.528;8.666;2023-04-06T03:08:38;2.00;99.90
5554;DHT22;2800;49.528;8.666;2023-04-06T03:11:04;1.90;99.90
5554;DHT22;2800;49.528;8.666;2023-04-06T03:13:29;1.80;99.90
5554;DHT22;2800;49.528;8.666;2023-04-06T03:15:55;1.70;99.90
5554;DHT22;2800;49.528;8.666;2023-04-06T03:18:22;1.70;99.90
5554;DHT22;2800;49.528;8.666;2023-04-06T03:20:51;1.70;99.90
5554;DHT22;2800;49.528;8.666;2023-04-06T03:23:19;1.60;99.90
5554;DHT22;2800;49.528;8.666;2023-04-06T03:25:46;1.70;99.90
5554;DHT22;2800;49.528;8.666;2023-04-06T03:28:11;1.60;99.90
5554;DHT22;2800;49.528;8.666;2023-04-06T03:30:37;1.50;99.90
5554;DHT22;2800;49.528;8.666;2023-04-06T03:33:03;1.50;99.90
5554;DHT22;2800;49.528;8.666;2023-04-06T03:35:28;1.50;99.90
5554;DHT22;2800;49.528;8.666;2023-04-06T03:37:54;1.40;99.90
5554;DHT22;2800;49.528;8.666;2023-04-06T03:40:19;1.40;99.90
5554;DHT22;2800;49.528;8.666;2023-04-06T03:42:45;1.40;99.90
5554;DHT22;2800;49.528;8.666;2023-04-06T03:45:10;1.50;99.90
5554;DHT22;2800;49.528;8.666;2023-04-06T03:47:38;1.40;99.90
5554;DHT22;2800;49.528;8.666;2023-04-06T03:50:03;1.40;99.90
5554;DHT22;2800;49.528;8.666;2023-04-06T03:52:29;1.40;99.90
5554;DHT22;2800;49.528;8.666;2023-04-06T03:54:55;1.40;99.90
5554;DHT22;2800;49.528;8.666;2023-04-06T03:57:20;1.40;99.90
5554;DHT22;2800;49.528;8.666;2023-04-06T03:59:46;1.40;99.90
5554;DHT22;2800;49.528;8.666;2023-04-06T04:02:11;1.40;99.90
5554;DHT22;2800;49.528;8.666;2023-04-06T04:04:38;1.30;99.90
5554;DHT22;2800;49.528;8.666;2023-04-06T04:07:03;1.40;99.90
5554;DHT22;2800;49.528;8.666;2023-04-06T04:09:29;1.50;99.90
5554;DHT22;2800;49.528;8.666;2023-04-06T04:11:54;1.50;99.90
5554;DHT22;2800;49.528;8.666;2023-04-06T04:14:20;1.40;99.90
5554;DHT22;2800;49.528;8.666;2023-04-06T04:16:46;1.30;99.90
5554;DHT22;2800;49.528;8.666;2023-04-06T04:19:11;1.20;99.90
5554;DHT22;2800;49.528;8.666;2023-04-06T04:21:44;1.20;99.90
5554;DHT22;2800;49.528;8.666;2023-04-06T04:24:10;1.20;99.90
5554;DHT22;2800;49.528;8.666;2023-04-06T04:26:37;1.30;99.90
5554;DHT22;2800;49.528;8.666;2023-04-06T04:29:03;1.30;99.90
5554;DHT22;2800;49.528;8.666;2023-04-06T04:31:29;1.30;99.90
5554;DHT22;2800;49.528;8.666;2023-04-06T04:33:55;1.20;99.90
5554;DHT22;2800;49.528;8.666;2023-04-06T04:36:20;1.20;99.90
5554;DHT22;2800;49.528;8.666;2023-04-06T04:38:46;1.20;99.90
5554;DHT22;2800;49.528;8.666;2023-04-06T04:41:11;1.10;99.90
5554;DHT22;2800;49.528;8.666;2023-04-06T04:43:37;1.10;99.90
5554;DHT22;2800;49.528;8.666;2023-04-06T04:46:03;1.10;99.90
5554;DHT22;2800;49.528;8.666;2023-04-06T04:48:29;1.00;99.90
5554;DHT22;2800;49.528;8.666;2023-04-06T04:50:55;1.00;99.90
5554;DHT22;2800;49.528;8.666;2023-04-06T04:53:20;0.90;99.90
5554;DHT22;2800;49.528;8.666;2023-04-06T04:55:46;0.90;99.90
5554;DHT22;2800;49.528;8.666;2023-04-06T04:58:11;0.80;99.90
5554;DHT22;2800;49.528;8.666;2023-04-06T05:00:42;0.80;99.90
5554;DHT22;2800;49.528;8.666;2023-04-06T05:03:08;0.80;99.90
5554;DHT22;2800;49.528;8.666;2023-04-06T05:05:33;0.80;99.90
5554;DHT22;2800;49.528;8.666;2023-04-06T05:07:59;0.80;99.90
5554;DHT22;2800;49.528;8.666;2023-04-06T05:10:24;0.80;99.90
5554;DHT22;2800;49.528;8.666;2023-04-06T05:12:50;0.80;99.90
5554;DHT22;2800;49.528;8.666;2023-04-06T05:15:16;0.90;99.90
5554;DHT22;2800;49.528;8.666;2023-04-06T05:17:41;0.90;99.90
5554;DHT22;2800;49.528;8.666;2023-04-06T05:20:07;1.00;99.90
5554;DHT22;2800;49.528;8.666;2023-04-06T05:22:33;1.00;99.90
5554;DHT22;2800;49.528;8.666;2023-04-06T05:24:58;1.00;99.90
5554;DHT22;2800;49.528;8.666;2023-04-06T05:27:24;1.10;99.90
5554;DHT22;2800;49.528;8.666;2023-04-06T05:29:51;1.20;99.90
5554;DHT22;2800;49.528;8.666;2023-04-06T05:32:16;1.10;99.90
5554;DHT22;2800;49.528;8.666;2023-04-06T05:34:42;1.10;99.90
5554;DHT22;2800;49.528;8.666;2023-04-06T05:37:08;1.20;99.90
5554;DHT22;2800;49.528;8.666;2023-04-06T05:39:33;1.20;99.90
5554;DHT22;2800;49.528;8.666;2023-04-06T05:42:03;1.20;99.90
5554;DHT22;2800;49.528;8.666;2023-04-06T05:44:29;1.30;99.90
5554;DHT22;2800;49.528;8.666;2023-04-06T05:46:54;1.40;99.90
5554;DHT22;2800;49.528;8.666;2023-04-06T05:49:20;1.40;99.90
5554;DHT22;2800;49.528;8.666;2023-04-06T05:51:45;1.40;99.90
5554;DHT22;2800;49.528;8.666;2023-04-06T05:54:11;1.50;99.90
5554;DHT22;2800;49.528;8.666;2023-04-06T05:56:36;1.60;99.90
5554;DHT22;2800;49.528;8.666;2023-04-06T05:59:02;1.70;99.90
5554;DHT22;2800;49.528;8.666;2023-04-06T06:01:27;2.00;99.90
5554;DHT22;2800;49.528;8.666;2023-04-06T06:03:54;2.40;99.90
5554;DHT22;2800;49.528;8.666;2023-04-06T06:06:19;2.70;99.90
5554;DHT22;2800;49.528;8.666;2023-04-06T06:08:45;3.00;99.90
5554;DHT22;2800;49.528;8.666;2023-04-06T06:11:11;3.20;99.90
5554;DHT22;2800;49.528;8.666;2023-04-06T06:13:37;3.30;99.90
5554;DHT22;2800;49.528;8.666;2023-04-06T06:16:02;3.50;99.90
5554;DHT22;2800;49.528;8.666;2023-04-06T06:18:30;3.90;99.90
5554;DHT22;2800;49.528;8.666;2023-04-06T06:20:56;4.40;99.90
5554;DHT22;2800;49.528;8.666;2023-04-06T06:23:22;5.00;99.90
5554;DHT22;2800;49.528;8.666;2023-04-06T06:25:47;5.30;99.90
5554;DHT22;2800;49.528;8.666;2023-04-06T06:28:13;5.60;99.90
5554;DHT22;2800;49.528;8.666;2023-04-06T06:30:39;5.80;99.90
5554;DHT22;2800;49.528;8.666;2023-04-06T06:33:04;6.00;99.90
5554;DHT22;2800;49.528;8.666;2023-04-06T06:35:30;6.20;99.90
5554;DHT22;2800;49.528;8.666;2023-04-06T06:37:56;6.20;99.90
5554;DHT22;2800;49.528;8.666;2023-04-06T06:40:21;6.00;99.90
5554;DHT22;2800;49.528;8.666;2023-04-06T06:42:49;5.70;99.90
5554;DHT22;2800;49.528;8.666;2023-04-06T06:45:15;5.70;99.90
5554;DHT22;2800;49.528;8.666;2023-04-06T06:47:41;5.80;99.90
5554;DHT22;2800;49.528;8.666;2023-04-06T06:50:06;6.30;99.90
5554;DHT22;2800;49.528;8.666;2023-04-06T06:52:32;6.60;99.90
5554;DHT22;2800;49.528;8.666;2023-04-06T06:54:58;6.80;99.90
5554;DHT22;2800;49.528;8.666;2023-04-06T06:57:23;6.70;99.90
5554;DHT22;2800;49.528;8.666;2023-04-06T06:59:49;6.40;99.90
5554;DHT22;2800;49.528;8.666;2023-04-06T07:02:14;6.40;99.90
5554;DHT22;2800;49.528;8.666;2023-04-06T07:04:40;6.40;99.90
5554;DHT22;2800;49.528;8.666;2023-04-06T07:07:05;6.30;99.90
5554;DHT22;2800;49.528;8.666;2023-04-06T07:09:31;6.50;99.90
5554;DHT22;2800;49.528;8.666;2023-04-06T07:11:57;6.60;99.90
5554;DHT22;2800;49.528;8.666;2023-04-06T07:14:23;6.90;99.90
5554;DHT22;2800;49.528;8.666;2023-04-06T07:16:48;6.60;99.90
5554;DHT22;2800;49.528;8.666;2023-04-06T07:19:15;7.00;99.90
5554;DHT22;2800;49.528;8.666;2023-04-06T07:21:41;6.40;99.90
5554;DHT22;2800;49.528;8.666;2023-04-06T07:24:06;7.00;99.90
5554;DHT22;2800;49.528;8.666;2023-04-06T07:26:32;7.50;99.90
5554;DHT22;2800;49.528;8.666;2023-04-06T07:28:57;7.60;99.90
5554;DHT22;2800;49.528;8.666;2023-04-06T07:31:23;7.80;99.90
5554;DHT22;2800;49.528;8.666;2023-04-06T07:33:48;7.90;99.90
5554;DHT22;2800;49.528;8.666;2023-04-06T07:36:15;8.10;99.90
5554;DHT22;2800;49.528;8.666;2023-04-06T07:38:40;8.30;99.90
5554;DHT22;2800;49.528;8.666;2023-04-06T07:41:06;8.30;99.90
5554;DHT22;2800;49.528;8.666;2023-04-06T07:43:32;8.90;99.90
5554;DHT22;2800;49.528;8.666;2023-04-06T07:45:57;8.20;99.90
5554;DHT22;2800;49.528;8.666;2023-04-06T07:48:24;8.40;99.90
5554;DHT22;2800;49.528;8.666;2023-04-06T07:50:50;8.00;99.90
5554;DHT22;2800;49.528;8.666;2023-04-06T07:53:15;8.30;99.90
5554;DHT22;2800;49.528;8.666;2023-04-06T07:55:41;8.40;99.90
5554;DHT22;2800;49.528;8.666;2023-04-06T07:58:06;7.90;99.90
5554;DHT22;2800;49.528;8.666;2023-04-06T08:00:33;8.20;99.90
5554;DHT22;2800;49.528;8.666;2023-04-06T08:02:58;8.10;99.90
5554;DHT22;2800;49.528;8.666;2023-04-06T08:05:24;8.00;99.90
5554;DHT22;2800;49.528;8.666;2023-04-06T08:07:50;8.10;99.90
5554;DHT22;2800;49.528;8.666;2023-04-06T08:10:15;7.90;99.90
5554;DHT22;2800;49.528;8.666;2023-04-06T08:12:41;8.50;99.90
5554;DHT22;2800;49.528;8.666;2023-04-06T08:15:07;9.00;99.90
5554;DHT22;2800;49.528;8.666;2023-04-06T08:17:32;8.60;99.90
5554;DHT22;2800;49.528;8.666;2023-04-06T08:19:59;8.20;99.90
5554;DHT22;2800;49.528;8.666;2023-04-06T08:22:25;7.90;96.80
5554;DHT22;2800;49.528;8.666;2023-04-06T08:24:51;9.00;98.50
5554;DHT22;2800;49.528;8.666;2023-04-06T08:27:16;8.60;98.80
5554;DHT22;2800;49.528;8.666;2023-04-06T08:29:42;9.10;96.10
5554;DHT22;2800;49.528;8.666;2023-04-06T08:32:07;9.60;99.90
5554;DHT22;2800;49.528;8.666;2023-04-06T08:34:33;8.70;98.60
5554;DHT22;2800;49.528;8.666;2023-04-06T08:36:59;8.60;95.40
5554;DHT22;2800;49.528;8.666;2023-04-06T08:39:25;8.90;99.90
5554;DHT22;2800;49.528;8.666;2023-04-06T08:41:53;9.50;99.90
5554;DHT22;2800;49.528;8.666;2023-04-06T08:44:22;10.10;99.90
5554;DHT22;2800;49.528;8.666;2023-04-06T08:46:47;9.80;98.90
5554;DHT22;2800;49.528;8.666;2023-04-06T08:49:14;10.10;93.60
5554;DHT22;2800;49.528;8.666;2023-04-06T08:51:42;10.20;96.00
5554;DHT22;2800;49.528;8.666;2023-04-06T08:54:08;10.80;95.60
5554;DHT22;2800;49.528;8.666;2023-04-06T08:56:36;11.40;93.90
5554;DHT22;2800;49.528;8.666;2023-04-06T08:59:03;11.90;93.90
5554;DHT22;2800;49.528;8.666;2023-04-06T09:01:29;12.00;99.10
5554;DHT22;2800;49.528;8.666;2023-04-06T09:03:58;11.50;97.60
5554;DHT22;2800;49.528;8.666;2023-04-06T09:06:25;11.00;96.60
5554;DHT22;2800;49.528;8.666;2023-04-06T09:08:52;10.60;93.80
5554;DHT22;2800;49.528;8.666;2023-04-06T09:11:17;10.00;93.40
5554;DHT22;2800;49.528;8.666;2023-04-06T09:16:14;10.60;95.20
5554;DHT22;2800;49.528;8.666;2023-04-06T09:18:41;10.80;92.40
5554;DHT22;2800;49.528;8.666;2023-04-06T09:21:08;11.00;92.90
5554;DHT22;2800;49.528;8.666;2023-04-06T09:23:34;10.70;93.90
5554;DHT22;2800;49.528;8.666;2023-04-06T09:28:50;11.20;93.80
5554;DHT22;2800;49.528;8.666;2023-04-06T09:31:25;11.40;93.30
5554;DHT22;2800;49.528;8.666;2023-04-06T09:33:51;11.60;93.50
5554;DHT22;2800;49.528;8.666;2023-04-06T09:36:18;11.50;92.70
5554;DHT22;2800;49.528;8.666;2023-04-06T09:38:56;12.20;93.80
5554;DHT22;2800;49.528;8.666;2023-04-06T09:41:23;11.90;92.60
5554;DHT22;2800;49.528;8.666;2023-04-06T09:43:51;11.30;93.00
5554;DHT22;2800;49.528;8.666;2023-04-06T09:46:17;12.00;92.10
5554;DHT22;2800;49.528;8.666;2023-04-06T09:48:46;13.10;93.90
5554;DHT22;2800;49.528;8.666;2023-04-06T09:51:14;13.20;95.40
5554;DHT22;2800;49.528;8.666;2023-04-06T09:53:42;13.60;91.90
5554;DHT22;2800;49.528;8.666;2023-04-06T09:56:12;14.00;95.00
5554;DHT22;2800;49.528;8.666;2023-04-06T09:58:43;12.00;86.20
5554;DHT22;2800;49.528;8.666;2023-04-06T10:01:15;13.40;93.30
5554;DHT22;2800;49.528;8.666;2023-04-06T10:04:09;13.20;94.10
5554;DHT22;2800;49.528;8.666;2023-04-06T10:06:37;12.70;92.80
5554;DHT22;2800;49.528;8.666;2023-04-06T10:09:04;12.60;93.50
5554;DHT22;2800;49.528;8.666;2023-04-06T10:11:33;13.00;92.60
5554;DHT22;2800;49.528;8.666;2023-04-06T10:14:00;13.50;95.50
5554;DHT22;2800;49.528;8.666;2023-04-06T10:16:26;12.60;93.40
5554;DHT22;2800;49.528;8.666;2023-04-06T10:18:57;13.10;96.30
5554;DHT22;2800;49.528;8.666;2023-04-06T10:21:25;13.60;95.80
5554;DHT22;2800;49.528;8.666;2023-04-06T10:23:55;14.10;95.60
5554;DHT22;2800;49.528;8.666;2023-04-06T10:26:23;13.60;93.10
5554;DHT22;2800;49.528;8.666;2023-04-06T10:28:49;14.20;88.40
5554;DHT22;2800;49.528;8.666;2023-04-06T10:31:27;14.50;82.10
5554;DHT22;2800;49.528;8.666;2023-04-06T10:34:02;14.70;94.80
5554;DHT22;2800;49.528;8.666;2023-04-06T10:36:32;14.80;81.20
5554;DHT22;2800;49.528;8.666;2023-04-06T10:39:03;14.80;81.80
5554;DHT22;2800;49.528;8.666;2023-04-06T10:41:45;15.00;92.40
5554;DHT22;2800;49.528;8.666;2023-04-06T10:44:23;14.90;89.20
5554;DHT22;2800;49.528;8.666;2023-04-06T10:46:57;14.50;84.70
5554;DHT22;2800;49.528;8.666;2023-04-06T10:49:24;14.80;89.10
5554;DHT22;2800;49.528;8.666;2023-04-06T10:51:56;14.70;86.80
5554;DHT22;2800;49.528;8.666;2023-04-06T10:54:24;14.90;83.50
5554;DHT22;2800;49.528;8.666;2023-04-06T10:56:50;13.80;85.90
5554;DHT22;2800;49.528;8.666;2023-04-06T10:59:22;13.10;78.50
5554;DHT22;2800;49.528;8.666;2023-04-06T11:01:50;13.60;85.40
5554;DHT22;2800;49.528;8.666;2023-04-06T11:04:20;13.40;82.30
5554;DHT22;2800;49.528;8.666;2023-04-06T11:06:47;14.50;78.00
5554;DHT22;2800;49.528;8.666;2023-04-06T11:09:24;14.40;80.90
5554;DHT22;2800;49.528;8.666;2023-04-06T11:11:50;15.20;80.80
5554;DHT22;2800;49.528;8.666;2023-04-06T11:14:15;15.20;78.40
5554;DHT22;2800;49.528;8.666;2023-04-06T11:16:41;16.00;82.50
5554;DHT22;2800;49.528;8.666;2023-04-06T11:19:07;15.90;79.10
5554;DHT22;2800;49.528;8.666;2023-04-06T11:21:44;15.40;78.60
5554;DHT22;2800;49.528;8.666;2023-04-06T11:24:20;15.80;79.00
5554;DHT22;2800;49.528;8.666;2023-04-06T11:26:51;16.40;83.40
5554;DHT22;2800;49.528;8.666;2023-04-06T11:29:18;16.00;88.60
5554;DHT22;2800;49.528;8.666;2023-04-06T11:32:04;15.30;74.60
5554;DHT22;2800;49.528;8.666;2023-04-06T11:34:35;15.30;87.40
5554;DHT22;2800;49.528;8.666;2023-04-06T11:37:03;15.20;75.20
5554;DHT22;2800;49.528;8.666;2023-04-06T11:39:38;14.80;73.40
5554;DHT22;2800;49.528;8.666;2023-04-06T11:42:03;15.70;90.60
5554;DHT22;2800;49.528;8.666;2023-04-06T11:46:58;16.40;87.80
5554;DHT22;2800;49.528;8.666;2023-04-06T11:49:27;15.80;85.40
5554;DHT22;2800;49.528;8.666;2023-04-06T11:51:54;15.20;81.60
5554;DHT22;2800;49.528;8.666;2023-04-06T11:54:36;14.40;81.10
5554;DHT22;2800;49.528;8.666;2023-04-06T11:57:03;15.10;83.30
5554;DHT22;2800;49.528;8.666;2023-04-06T11:59:29;14.40;88.50
5554;DHT22;2800;49.528;8.666;2023-04-06T12:01:57;14.40;91.20
5554;DHT22;2800;49.528;8.666;2023-04-06T12:04:22;14.90;77.10
5554;DHT22;2800;49.528;8.666;2023-04-06T12:06:48;14.40;76.50
5554;DHT22;2800;49.528;8.666;2023-04-06T12:09:14;13.40;69.50
5554;DHT22;2800;49.528;8.666;2023-04-06T12:11:39;14.40;76.00
5554;DHT22;2800;49.528;8.666;2023-04-06T12:14:06;15.20;74.90
5554;DHT22;2800;49.528;8.666;2023-04-06T12:16:33;15.50;81.00
5554;DHT22;2800;49.528;8.666;2023-04-06T12:18:59;16.70;86.80
5554;DHT22;2800;49.528;8.666;2023-04-06T12:21:27;15.80;79.10
5554;DHT22;2800;49.528;8.666;2023-04-06T12:23:53;16.10;92.10
5554;DHT22;2800;49.528;8.666;2023-04-06T12:26:19;15.10;95.00
5554;DHT22;2800;49.528;8.666;2023-04-06T12:28:45;14.40;73.60
5554;DHT22;2800;49.528;8.666;2023-04-06T12:31:15;14.90;71.80
5554;DHT22;2800;49.528;8.666;2023-04-06T12:33:41;15.10;73.40
5554;DHT22;2800;49.528;8.666;2023-04-06T12:36:18;14.90;70.40
5554;DHT22;2800;49.528;8.666;2023-04-06T12:38:47;14.60;69.90
5554;DHT22;2800;49.528;8.666;2023-04-06T12:41:14;14.80;73.50
5554;DHT22;2800;49.528;8.666;2023-04-06T12:43:41;15.40;76.60
5554;DHT22;2800;49.528;8.666;2023-04-06T12:46:06;15.50;76.00
5554;DHT22;2800;49.528;8.666;2023-04-06T12:48:32;15.50;73.90
5554;DHT22;2800;49.528;8.666;2023-04-06T12:50:59;15.40;74.40
5554;DHT22;2800;49.528;8.666;2023-04-06T12:53:25;14.90;79.60
5554;DHT22;2800;49.528;8.666;2023-04-06T12:55:52;17.00;85.40
5554;DHT22;2800;49.528;8.666;2023-04-06T12:58:18;18.00;86.40
5554;DHT22;2800;49.528;8.666;2023-04-06T13:00:44;17.70;90.60
5554;DHT22;2800;49.528;8.666;2023-04-06T13:03:10;16.80;90.40
5554;DHT22;2800;49.528;8.666;2023-04-06T13:05:36;16.80;90.80
5554;DHT22;2800;49.528;8.666;2023-04-06T13:08:01;18.10;91.60
5554;DHT22;2800;49.528;8.666;2023-04-06T13:10:27;17.40;90.60
5554;DHT22;2800;49.528;8.666;2023-04-06T13:12:53;16.80;89.60
5554;DHT22;2800;49.528;8.666;2023-04-06T13:15:18;16.40;89.00
5554;DHT22;2800;49.528;8.666;2023-04-06T13:17:44;17.50;90.60
5554;DHT22;2800;49.528;8.666;2023-04-06T13:20:10;17.20;91.30
5554;DHT22;2800;49.528;8.666;2023-04-06T13:22:35;17.50;94.50
5554;DHT22;2800;49.528;8.666;2023-04-06T13:25:02;15.90;90.90
5554;DHT22;2800;49.528;8.666;2023-04-06T13:27:28;16.50;93.40
5554;DHT22;2800;49.528;8.666;2023-04-06T13:29:55;17.30;91.30
5554;DHT22;2800;49.528;8.666;2023-04-06T13:32:21;17.40;93.20
5554;DHT22;2800;49.528;8.666;2023-04-06T13:34:46;16.60;94.50
5554;DHT22;2800;49.528;8.666;2023-04-06T13:37:14;17.40;92.60
5554;DHT22;2800;49.528;8.666;2023-04-06T13:39:40;17.90;95.60
5554;DHT22;2800;49.528;8.666;2023-04-06T13:42:06;16.70;97.80
5554;DHT22;2800;49.528;8.666;2023-04-06T13:44:32;16.60;99.50
5554;DHT22;2800;49.528;8.666;2023-04-06T13:46:58;16.90;93.70
5554;DHT22;2800;49.528;8.666;2023-04-06T13:49:23;17.20;95.70
5554;DHT22;2800;49.528;8.666;2023-04-06T13:51:49;17.30;93.80
5554;DHT22;2800;49.528;8.666;2023-04-06T13:54:14;17.10;94.30
5554;DHT22;2800;49.528;8.666;2023-04-06T13:56:40;17.40;95.80
5554;DHT22;2800;49.528;8.666;2023-04-06T13:59:06;17.20;98.00
5554;DHT22;2800;49.528;8.666;2023-04-06T14:01:31;17.20;96.50
5554;DHT22;2800;49.528;8.666;2023-04-06T14:03:57;16.80;97.20
5554;DHT22;2800;49.528;8.666;2023-04-06T14:06:22;15.70;91.90
5554;DHT22;2800;49.528;8.666;2023-04-06T14:08:48;15.20;93.40
5554;DHT22;2800;49.528;8.666;2023-04-06T14:11:13;15.20;90.70
5554;DHT22;2800;49.528;8.666;2023-04-06T14:13:40;15.20;92.00
5554;DHT22;2800;49.528;8.666;2023-04-06T14:16:06;15.60;92.00
5554;DHT22;2800;49.528;8.666;2023-04-06T14:18:32;16.40;94.80
5554;DHT22;2800;49.528;8.666;2023-04-06T14:20:59;16.60;96.10
5554;DHT22;2800;49.528;8.666;2023-04-06T14:23:29;16.10;95.30
5554;DHT22;2800;49.528;8.666;2023-04-06T14:26:05;16.80;98.80
5554;DHT22;2800;49.528;8.666;2023-04-06T14:28:34;15.80;98.20
5554;DHT22;2800;49.528;8.666;2023-04-06T14:31:01;14.80;93.40
5554;DHT22;2800;49.528;8.666;2023-04-06T14:33:29;14.40;94.80
5554;DHT22;2800;49.528;8.666;2023-04-06T14:35:55;14.20;92.70
5554;DHT22;2800;49.528;8.666;2023-04-06T14:38:21;14.10;96.60
5554;DHT22;2800;49.528;8.666;2023-04-06T14:40:47;14.40;91.70
5554;DHT22;2800;49.528;8.666;2023-04-06T14:43:13;14.40;91.00
5554;DHT22;2800;49.528;8.666;2023-04-06T14:45:38;14.50;93.50
5554;DHT22;2800;49.528;8.666;2023-04-06T14:48:05;13.90;91.10
5554;DHT22;2800;49.528;8.666;2023-04-06T14:50:37;13.90;88.80
5554;DHT22;2800;49.528;8.666;2023-04-06T14:53:03;13.70;97.20
5554;DHT22;2800;49.528;8.666;2023-04-06T14:55:28;13.70;87.70
5554;DHT22;2800;49.528;8.666;2023-04-06T14:57:54;13.70;90.80
5554;DHT22;2800;49.528;8.666;2023-04-06T15:00:19;13.60;90.20
5554;DHT22;2800;49.528;8.666;2023-04-06T15:02:45;13.60;91.00
5554;DHT22;2800;49.528;8.666;2023-04-06T15:05:11;13.50;88.90
5554;DHT22;2800;49.528;8.666;2023-04-06T15:07:37;13.00;87.00
5554;DHT22;2800;49.528;8.666;2023-04-06T15:10:03;13.20;88.90
5554;DHT22;2800;49.528;8.666;2023-04-06T15:12:29;13.40;86.30
5554;DHT22;2800;49.528;8.666;2023-04-06T15:14:55;13.20;89.90
5554;DHT22;2800;49.528;8.666;2023-04-06T15:17:20;13.30;91.70
5554;DHT22;2800;49.528;8.666;2023-04-06T15:19:46;13.50;91.70
5554;DHT22;2800;49.528;8.666;2023-04-06T15:22:11;13.30;91.80
5554;DHT22;2800;49.528;8.666;2023-04-06T15:24:37;13.40;86.30
5554;DHT22;2800;49.528;8.666;2023-04-06T15:27:02;13.50;86.70
5554;DHT22;2800;49.528;8.666;2023-04-06T15:29:30;13.50;87.10
5554;DHT22;2800;49.528;8.666;2023-04-06T15:31:55;13.40;85.90
5554;DHT22;2800;49.528;8.666;2023-04-06T15:34:21;13.30;86.10
5554;DHT22;2800;49.528;8.666;2023-04-06T15:36:46;13.30;86.00
5554;DHT22;2800;49.528;8.666;2023-04-06T15:39:12;13.30;89.00
5554;DHT22;2800;49.528;8.666;2023-04-06T15:41:38;13.00;90.30
5554;DHT22;2800;49.528;8.666;2023-04-06T15:44:04;13.00;88.10
5554;DHT22;2800;49.528;8.666;2023-04-06T15:46:30;13.00;83.20
5554;DHT22;2800;49.528;8.666;2023-04-06T15:48:55;13.00;84.90
5554;DHT22;2800;49.528;8.666;2023-04-06T15:51:21;13.00;86.40
5554;DHT22;2800;49.528;8.666;2023-04-06T15:53:48;12.80;85.50
5554;DHT22;2800;49.528;8.666;2023-04-06T15:56:13;12.90;85.60
5554;DHT22;2800;49.528;8.666;2023-04-06T15:58:39;12.90;85.50
5554;DHT22;2800;49.528;8.666;2023-04-06T16:01:16;13.00;84.00
5554;DHT22;2800;49.528;8.666;2023-04-06T16:03:42;13.00;84.30
5554;DHT22;2800;49.528;8.666;2023-04-06T16:06:08;13.00;85.50
5554;DHT22;2800;49.528;8.666;2023-04-06T16:08:34;13.00;82.10
5554;DHT22;2800;49.528;8.666;2023-04-06T16:11:00;13.00;81.60
5554;DHT22;2800;49.528;8.666;2023-04-06T16:13:26;13.00;84.90